createdAt,value
2018-03-18T00:02:01.052Z,13.18
2018-03-18T00:04:29.246Z,10.32
2018-03-18T00:06:57.201Z,13.62
2018-03-18T00:09:25.177Z,11.68
2018-03-18T00:11:53.347Z,10.45
2018-03-18T00:14:21.256Z,10.10
2018-03-18T00:16:49.350Z,12.63
2018-03-18T00:19:17.575Z,12.48
2018-03-18T00:21:45.762Z,13.93
2018-03-18T00:24:14.003Z,14.90
2018-03-18T00:26:41.922Z,14.90
2018-03-18T00:29:09.954Z,11.70
2018-03-18T00:31:37.994Z,14.05
2018-03-18T00:34:06.029Z,11.15
2018-03-18T00:36:33.973Z,12.52
2018-03-18T00:39:02.084Z,13.35
2018-03-18T00:41:30.216Z,10.60
2018-03-18T00:43:58.434Z,9.95
2018-03-18T00:46:26.729Z,15.90
2018-03-18T00:48:54.858Z,10.70
2018-03-18T00:51:34.666Z,11.80
2018-03-18T00:54:02.855Z,10.55
2018-03-18T00:56:31.002Z,12.90
2018-03-18T00:58:59.069Z,9.70
2018-03-18T01:01:27.092Z,12.90
2018-03-18T01:03:55.189Z,9.68
2018-03-18T01:06:23.138Z,18.25
2018-03-18T01:08:51.211Z,10.85
2018-03-18T01:11:19.257Z,10.70
2018-03-18T01:13:47.150Z,11.32
2018-03-18T01:16:15.184Z,11.50
2018-03-18T01:18:43.147Z,15.10
2018-03-18T01:21:11.205Z,12.27
2018-03-18T01:23:39.407Z,9.70
2018-03-18T01:26:07.380Z,7.78
2018-03-18T01:28:35.291Z,10.52
2018-03-18T01:31:03.286Z,9.20
2018-03-18T01:33:31.238Z,10.65
2018-03-18T01:35:59.266Z,10.75
2018-03-18T01:38:27.380Z,8.70
2018-03-18T01:40:55.339Z,9.55
2018-03-18T01:43:23.339Z,11.70
2018-03-18T01:45:51.521Z,10.82
2018-03-18T01:48:19.495Z,8.77
2018-03-18T01:50:47.611Z,7.90
2018-03-18T01:53:22.097Z,10.55
2018-03-18T01:55:49.999Z,10.13
2018-03-18T01:58:17.939Z,12.88
2018-03-18T02:00:46.040Z,11.85
2018-03-18T02:03:13.965Z,9.60
2018-03-18T02:05:42.071Z,9.27
2018-03-18T02:08:09.973Z,9.18
2018-03-18T02:10:37.906Z,10.27
2018-03-18T02:13:05.900Z,10.57
2018-03-18T02:15:33.865Z,8.27
2018-03-18T02:18:01.810Z,10.02
2018-03-18T02:20:29.770Z,11.57
2018-03-18T02:22:57.784Z,9.98
2018-03-18T02:25:25.732Z,10.00
2018-03-18T02:27:53.654Z,10.43
2018-03-18T02:30:21.650Z,8.38
2018-03-18T02:32:49.801Z,15.43
2018-03-18T02:35:17.737Z,10.88
2018-03-18T02:37:45.667Z,10.55
2018-03-18T02:40:13.605Z,11.93
2018-03-18T02:42:41.538Z,10.57
2018-03-18T02:45:09.466Z,13.73
2018-03-18T02:47:37.406Z,8.57
2018-03-18T02:50:05.333Z,7.85
2018-03-18T02:52:33.243Z,13.48
2018-03-18T02:55:01.280Z,9.60
2018-03-18T02:57:29.285Z,8.10
2018-03-18T02:59:57.222Z,6.97
2018-03-18T03:02:25.118Z,8.68
2018-03-18T03:04:53.123Z,8.35
2018-03-18T03:07:21.055Z,11.07
2018-03-18T03:09:49.105Z,6.93
2018-03-18T03:12:17.056Z,9.10
2018-03-18T03:14:44.996Z,8.15
2018-03-18T03:17:12.932Z,6.28
2018-03-18T03:19:40.837Z,7.55
2018-03-18T03:22:08.763Z,6.80
2018-03-18T03:24:36.712Z,7.10
2018-03-18T03:27:04.634Z,8.32
2018-03-18T03:29:32.562Z,9.25
2018-03-18T03:32:00.487Z,11.20
2018-03-18T03:34:28.414Z,7.32
2018-03-18T03:36:56.347Z,9.20
2018-03-18T03:39:24.270Z,6.75
2018-03-18T03:41:52.176Z,8.30
2018-03-18T03:44:20.083Z,7.82
2018-03-18T03:46:47.993Z,9.00
2018-03-18T03:49:16.020Z,7.12
2018-03-18T03:51:43.889Z,6.87
2018-03-18T03:54:11.806Z,4.93
2018-03-18T03:56:39.731Z,5.43
2018-03-18T03:59:07.658Z,8.23
2018-03-18T04:01:35.580Z,7.53
2018-03-18T04:04:03.502Z,7.70
2018-03-18T04:06:31.401Z,6.12
2018-03-18T04:08:59.332Z,9.10
2018-03-18T04:11:27.294Z,4.85
2018-03-18T04:13:55.286Z,7.35
2018-03-18T04:16:23.288Z,7.65
2018-03-18T04:18:51.275Z,7.00
2018-03-18T04:21:19.310Z,7.43
2018-03-18T04:23:47.295Z,5.65
2018-03-18T04:26:15.301Z,11.07
2018-03-18T04:28:43.269Z,11.65
2018-03-18T04:31:11.257Z,6.90
2018-03-18T04:33:39.242Z,5.45
2018-03-18T04:36:07.209Z,5.80
2018-03-18T04:38:35.198Z,7.20
2018-03-18T04:41:03.166Z,8.45
2018-03-18T04:43:31.218Z,7.72
2018-03-18T04:45:59.194Z,4.80
2018-03-18T04:48:27.190Z,8.88
2018-03-18T04:50:55.190Z,5.68
2018-03-18T04:53:23.296Z,8.65
2018-03-18T04:55:51.302Z,4.87
2018-03-18T04:58:19.347Z,9.57
2018-03-18T05:00:47.316Z,4.53
2018-03-18T05:03:15.352Z,4.53
2018-03-18T05:05:43.437Z,6.30
2018-03-18T05:08:11.454Z,7.12
2018-03-18T05:10:39.441Z,5.03
2018-03-18T05:13:07.497Z,6.60
2018-03-18T05:15:35.496Z,4.78
2018-03-18T05:18:03.481Z,4.87
2018-03-18T05:20:31.480Z,7.37
2018-03-18T05:22:59.478Z,5.93
2018-03-18T05:25:27.514Z,4.57
2018-03-18T05:27:55.538Z,4.20
2018-03-18T05:30:23.523Z,5.70
2018-03-18T05:32:51.551Z,4.50
2018-03-18T05:35:19.555Z,4.50
2018-03-18T05:37:47.571Z,5.43
2018-03-18T05:40:15.579Z,5.28
2018-03-18T05:42:43.563Z,5.35
2018-03-18T05:45:11.604Z,4.20
2018-03-18T05:47:39.586Z,6.57
2018-03-18T05:50:07.575Z,6.22
2018-03-18T05:52:35.571Z,4.07
2018-03-18T05:55:03.581Z,6.10
2018-03-18T05:57:31.569Z,4.90
2018-03-18T05:59:59.564Z,4.57
2018-03-18T06:02:27.597Z,3.40
2018-03-18T06:04:55.612Z,5.32
2018-03-18T06:07:24.498Z,4.15
2018-03-18T06:09:52.541Z,91.80
2018-03-18T06:12:20.628Z,7.05
2018-03-18T06:14:48.666Z,7.47
2018-03-18T06:17:16.667Z,4.97
2018-03-18T06:19:44.675Z,5.15
2018-03-18T06:22:12.664Z,5.20
2018-03-18T06:24:40.679Z,5.60
2018-03-18T06:27:08.750Z,5.32
2018-03-18T06:29:36.759Z,4.12
2018-03-18T06:32:04.763Z,4.12
2018-03-18T06:34:32.771Z,4.30
2018-03-18T06:37:00.827Z,4.00
2018-03-18T06:39:28.843Z,5.35
2018-03-18T06:41:56.839Z,4.93
2018-03-18T06:44:24.918Z,5.28
2018-03-18T06:46:53.005Z,4.28
2018-03-18T06:49:21.001Z,4.22
2018-03-18T06:51:48.986Z,6.40
2018-03-18T06:54:17.379Z,4.32
2018-03-18T06:56:45.630Z,3.95
2018-03-18T06:59:13.648Z,6.47
2018-03-18T07:01:41.647Z,2.70
2018-03-18T07:04:09.779Z,4.20
2018-03-18T07:06:37.770Z,3.30
2018-03-18T07:09:05.800Z,6.78
2018-03-18T07:11:33.788Z,3.65
2018-03-18T07:14:02.798Z,4.25
2018-03-18T07:16:31.407Z,8.38
2018-03-18T07:18:59.421Z,5.45
2018-03-18T07:21:27.455Z,3.15
2018-03-18T07:23:55.562Z,4.47
2018-03-18T07:26:23.869Z,6.65
2018-03-18T07:28:52.103Z,2.80
2018-03-18T07:31:20.109Z,4.22
2018-03-18T07:33:48.206Z,7.30
2018-03-18T07:36:16.206Z,4.12
2018-03-18T07:38:44.863Z,4.20
2018-03-18T07:41:12.854Z,6.87
2018-03-18T07:43:45.132Z,6.25
2018-03-18T07:46:13.583Z,4.32
2018-03-18T07:48:41.602Z,3.20
2018-03-18T07:51:09.716Z,6.18
2018-03-18T07:53:37.760Z,5.47
2018-03-18T07:56:05.758Z,3.62
2018-03-18T07:58:33.800Z,6.87
2018-03-18T08:01:01.770Z,13.57
2018-03-18T08:03:29.794Z,5.20
2018-03-18T08:05:58.559Z,4.90
2018-03-18T08:08:26.577Z,6.50
2018-03-18T08:10:54.742Z,5.43
2018-03-18T08:13:22.769Z,9.30
2018-03-18T08:15:50.874Z,4.93
2018-03-18T08:18:18.971Z,4.70
2018-03-18T08:20:46.965Z,3.30
2018-03-18T08:23:14.936Z,4.13
2018-03-18T08:25:42.919Z,6.93
2018-03-18T08:28:10.913Z,8.33
2018-03-18T08:30:38.904Z,6.27
2018-03-18T08:33:06.910Z,11.60
2018-03-18T08:35:34.906Z,3.10
2018-03-18T08:38:03.208Z,3.47
2018-03-18T08:40:31.228Z,4.53
2018-03-18T08:42:59.217Z,5.50
2018-03-18T08:45:27.211Z,5.40
2018-03-18T08:47:55.233Z,4.83
2018-03-18T08:50:23.240Z,5.53
2018-03-18T08:52:51.895Z,3.33
2018-03-18T08:55:19.901Z,6.13
2018-03-18T08:57:48.072Z,4.13
2018-03-18T09:00:16.073Z,5.20
2018-03-18T09:02:44.082Z,3.60
2018-03-18T09:05:12.066Z,2.77
2018-03-18T09:07:40.111Z,3.20
2018-03-18T09:10:08.119Z,4.07
2018-03-18T09:12:36.145Z,4.17
2018-03-18T09:15:04.298Z,3.13
2018-03-18T09:17:32.312Z,3.93
2018-03-18T09:20:00.376Z,5.70
2018-03-18T09:22:28.370Z,3.60
2018-03-18T09:24:56.435Z,6.00
2018-03-18T09:27:24.477Z,5.13
2018-03-18T09:29:52.467Z,3.77
2018-03-18T09:32:20.475Z,2.97
2018-03-18T09:34:48.488Z,3.07
2018-03-18T09:37:17.175Z,2.10
2018-03-18T09:39:45.214Z,4.00
2018-03-18T09:42:13.215Z,3.60
2018-03-18T09:44:41.283Z,3.60
2018-03-18T09:47:09.270Z,3.47
2018-03-18T09:49:37.335Z,3.03
2018-03-18T09:52:05.328Z,4.10
2018-03-18T09:54:33.378Z,3.00
2018-03-18T09:57:01.362Z,3.33
2018-03-18T09:59:29.378Z,3.63
2018-03-18T10:01:57.375Z,3.70
2018-03-18T10:04:25.388Z,7.67
2018-03-18T10:06:53.399Z,4.83
2018-03-18T10:09:21.420Z,5.57
2018-03-18T10:11:49.412Z,3.30
2018-03-18T10:14:17.569Z,2.93
2018-03-18T10:16:45.685Z,3.73
2018-03-18T10:19:13.708Z,9.00
2018-03-18T10:21:41.760Z,4.00
2018-03-18T10:24:09.758Z,5.17
2018-03-18T10:26:37.765Z,3.33
2018-03-18T10:29:05.742Z,3.30
2018-03-18T10:31:33.774Z,4.60
2018-03-18T10:34:01.775Z,3.90
2018-03-18T10:36:30.386Z,3.33
2018-03-18T10:38:58.382Z,4.40
2018-03-18T10:41:26.384Z,4.00
2018-03-18T10:43:54.369Z,5.47
2018-03-18T10:46:23.160Z,3.70
2018-03-18T10:48:51.178Z,5.27
2018-03-18T10:51:19.271Z,2.43
2018-03-18T10:53:47.291Z,3.80
2018-03-18T10:56:15.306Z,3.30
2018-03-18T10:58:43.374Z,6.73
2018-03-18T11:01:17.451Z,3.30
2018-03-18T11:03:45.462Z,4.10
2018-03-18T11:06:13.458Z,5.50
2018-03-18T11:08:41.465Z,4.00
2018-03-18T11:11:10.304Z,5.33
2018-03-18T11:13:38.338Z,3.80
2018-03-18T11:16:06.328Z,10.33
2018-03-18T11:18:34.312Z,3.03
2018-03-18T11:21:02.368Z,4.53
2018-03-18T11:23:30.382Z,3.70
2018-03-18T11:25:58.412Z,7.90
2018-03-18T11:28:26.415Z,3.83
2018-03-18T11:30:54.430Z,4.50
2018-03-18T11:33:22.458Z,4.60
2018-03-18T11:35:50.457Z,3.93
2018-03-18T11:38:18.603Z,4.23
2018-03-18T11:40:46.678Z,3.43
2018-03-18T11:43:15.631Z,4.13
2018-03-18T11:45:43.833Z,5.57
2018-03-18T11:48:12.826Z,4.47
2018-03-18T11:50:41.315Z,2.70
2018-03-18T11:53:09.342Z,3.33
2018-03-18T11:55:37.466Z,4.37
2018-03-18T11:58:05.457Z,4.60
2018-03-18T12:00:33.511Z,5.83
2018-03-18T12:03:01.538Z,3.33
2018-03-18T12:05:29.581Z,4.40
2018-03-18T12:07:57.608Z,5.27
2018-03-18T12:10:25.653Z,4.43
2018-03-18T12:12:53.673Z,3.23
2018-03-18T12:15:21.669Z,3.93
2018-03-18T12:17:49.676Z,2.60
2018-03-18T12:20:17.673Z,4.90
2018-03-18T12:22:45.696Z,3.30
2018-03-18T12:25:13.663Z,3.80
2018-03-18T12:27:41.662Z,3.67
2018-03-18T12:30:09.654Z,5.07
2018-03-18T12:32:37.646Z,2.97
2018-03-18T12:35:05.666Z,4.13
2018-03-18T12:37:33.683Z,3.53
2018-03-18T12:40:13.787Z,3.27
2018-03-18T12:42:53.730Z,3.53
2018-03-18T12:45:21.758Z,3.27
2018-03-18T12:47:49.758Z,5.53
2018-03-18T12:50:17.801Z,6.40
2018-03-18T12:52:45.822Z,3.97
2018-03-18T12:55:13.868Z,3.20
2018-03-18T12:57:43.530Z,4.30
2018-03-18T13:00:12.185Z,3.73
2018-03-18T13:02:40.240Z,4.10
2018-03-18T13:05:08.213Z,4.63
2018-03-18T13:07:36.245Z,5.80
2018-03-18T13:10:04.659Z,5.47
2018-03-18T13:12:32.734Z,5.37
2018-03-18T13:15:00.775Z,3.77
2018-03-18T13:17:28.755Z,4.20
2018-03-18T13:19:56.821Z,3.50
2018-03-18T13:22:25.743Z,4.63
2018-03-18T13:24:53.823Z,9.50
2018-03-18T13:27:21.792Z,3.70
2018-03-18T13:29:49.795Z,5.37
2018-03-18T13:32:17.831Z,4.70
2018-03-18T13:34:46.186Z,7.10
2018-03-18T13:37:14.174Z,3.60
2018-03-18T13:39:42.163Z,4.03
2018-03-18T13:42:10.285Z,4.57
2018-03-18T13:44:38.294Z,4.10
2018-03-18T13:47:06.286Z,6.60
2018-03-18T13:49:34.303Z,4.00
2018-03-18T13:52:02.298Z,6.07
2018-03-18T13:54:30.911Z,3.50
2018-03-18T13:56:59.607Z,3.40
2018-03-18T13:59:27.785Z,3.50
2018-03-18T14:01:56.771Z,8.70
2018-03-18T14:04:25.566Z,4.10
2018-03-18T14:06:54.032Z,7.20
2018-03-18T14:09:22.047Z,5.73
2018-03-18T14:11:52.120Z,4.30
2018-03-18T14:14:20.971Z,4.33
2018-03-18T14:16:49.087Z,5.80
2018-03-18T14:19:17.271Z,10.33
2018-03-18T14:21:46.293Z,4.40
2018-03-18T14:24:14.391Z,9.83
2018-03-18T14:26:43.563Z,5.13
2018-03-18T14:29:11.599Z,3.63
2018-03-18T14:31:39.864Z,7.37
2018-03-18T14:34:07.899Z,4.70
2018-03-18T14:36:35.940Z,6.30
2018-03-18T14:39:03.934Z,4.97
2018-03-18T14:41:31.914Z,5.63
2018-03-18T14:43:59.933Z,5.83
2018-03-18T14:46:27.933Z,5.90
2018-03-18T14:48:55.930Z,4.33
2018-03-18T14:51:24.000Z,5.20
2018-03-18T14:53:51.998Z,4.30
2018-03-18T14:56:20.396Z,3.37
2018-03-18T14:58:48.398Z,7.97
2018-03-18T15:01:17.326Z,7.00
2018-03-18T15:03:45.333Z,6.47
2018-03-18T15:06:13.540Z,6.30
2018-03-18T15:08:41.615Z,5.33
2018-03-18T15:11:09.838Z,3.33
2018-03-18T15:13:37.860Z,7.80
2018-03-18T15:16:05.892Z,5.30
2018-03-18T15:18:33.883Z,5.87
2018-03-18T15:21:01.930Z,4.60
2018-03-18T15:23:30.670Z,6.17
2018-03-18T15:26:00.447Z,6.63
2018-03-18T15:28:28.442Z,4.27
2018-03-18T15:30:56.440Z,3.87
2018-03-18T15:33:24.504Z,5.60
2018-03-18T15:35:52.578Z,4.33
2018-03-18T15:38:20.560Z,6.23
2018-03-18T15:40:48.622Z,4.60
2018-03-18T15:43:16.792Z,4.90
2018-03-18T15:45:44.900Z,6.60
2018-03-18T15:48:12.912Z,5.30
2018-03-18T15:50:42.591Z,3.93
2018-03-18T15:53:10.602Z,3.90
2018-03-18T15:55:38.755Z,4.73
2018-03-18T15:58:06.777Z,5.75
2018-03-18T16:00:34.826Z,5.80
2018-03-18T16:03:02.897Z,6.32
2018-03-18T16:05:30.943Z,5.13
2018-03-18T16:07:59.012Z,7.28
2018-03-18T16:10:27.016Z,5.97
2018-03-18T16:12:55.030Z,3.65
2018-03-18T16:15:23.047Z,6.53
2018-03-18T16:17:51.110Z,4.35
2018-03-18T16:20:19.218Z,6.20
2018-03-18T16:22:47.308Z,5.03
2018-03-18T16:25:15.901Z,5.72
2018-03-18T16:27:44.531Z,5.03
2018-03-18T16:30:24.380Z,4.15
2018-03-18T16:32:52.345Z,3.62
2018-03-18T16:35:21.160Z,4.15
2018-03-18T16:37:49.161Z,7.10
2018-03-18T16:40:17.288Z,9.55
2018-03-18T16:42:45.375Z,5.20
2018-03-18T16:45:14.019Z,4.10
2018-03-18T16:47:42.031Z,3.92
2018-03-18T16:50:10.098Z,5.12
2018-03-18T16:52:38.167Z,5.28
2018-03-18T16:55:06.334Z,5.43
2018-03-18T16:57:34.515Z,5.55
2018-03-18T17:00:03.770Z,3.25
2018-03-18T17:02:32.388Z,6.55
2018-03-18T17:05:00.421Z,6.18
2018-03-18T17:07:28.457Z,8.65
2018-03-18T17:09:56.600Z,6.00
2018-03-18T17:12:24.617Z,8.25
2018-03-18T17:14:52.649Z,5.05
2018-03-18T17:17:20.687Z,4.10
2018-03-18T17:19:48.700Z,4.20
2018-03-18T17:22:16.710Z,5.45
2018-03-18T17:24:44.721Z,9.20
2018-03-18T17:27:12.736Z,6.40
2018-03-18T17:29:40.735Z,7.07
2018-03-18T17:32:08.739Z,8.82
2018-03-18T17:34:36.746Z,5.87
2018-03-18T17:37:05.410Z,9.15
2018-03-18T17:39:33.431Z,8.48
2018-03-18T17:42:02.054Z,13.95
2018-03-18T17:44:43.071Z,9.95
2018-03-18T17:47:22.926Z,6.07
2018-03-18T17:50:16.834Z,5.18
2018-03-18T17:52:56.821Z,6.45
2018-03-18T17:55:31.131Z,3.70
2018-03-18T17:57:59.516Z,10.57
2018-03-18T18:00:27.642Z,7.03
2018-03-18T18:02:56.029Z,6.50
2018-03-18T18:05:24.117Z,4.90
2018-03-18T18:07:52.246Z,4.55
2018-03-18T18:10:20.852Z,33.83
2018-03-18T18:12:49.165Z,23.70
2018-03-18T18:15:17.955Z,6.57
2018-03-18T18:17:46.127Z,7.80
2018-03-18T18:20:14.243Z,5.18
2018-03-18T18:22:42.307Z,4.78
2018-03-18T18:25:10.307Z,7.55
2018-03-18T18:27:38.393Z,5.68
2018-03-18T18:30:07.188Z,7.50
2018-03-18T18:32:37.062Z,3.83
2018-03-18T18:35:05.082Z,5.60
2018-03-18T18:37:33.217Z,9.85
2018-03-18T18:40:01.358Z,4.18
2018-03-18T18:42:30.066Z,4.80
2018-03-18T18:44:58.187Z,5.75
2018-03-18T18:47:26.380Z,4.93
2018-03-18T18:49:55.415Z,4.35
2018-03-18T18:52:23.822Z,4.47
2018-03-18T18:54:51.887Z,5.10
2018-03-18T18:57:19.892Z,5.37
2018-03-18T18:59:48.035Z,4.95
2018-03-18T19:02:16.114Z,3.53
2018-03-18T19:04:44.243Z,4.87
2018-03-18T19:07:12.271Z,6.57
2018-03-18T19:09:40.268Z,5.18
2018-03-18T19:12:08.627Z,5.62
2018-03-18T19:14:36.653Z,4.50
2018-03-18T19:17:04.693Z,6.22
2018-03-18T19:19:33.855Z,5.95
2018-03-18T19:22:02.030Z,7.28
2018-03-18T19:24:30.415Z,9.73
2018-03-18T19:26:58.413Z,7.82
2018-03-18T19:29:27.603Z,4.60
2018-03-18T19:31:56.457Z,5.55
2018-03-18T19:34:24.464Z,4.93
2018-03-18T19:36:52.471Z,4.40
2018-03-18T19:39:20.474Z,5.45
2018-03-18T19:41:48.513Z,6.40
2018-03-18T19:44:16.516Z,7.53
2018-03-18T19:46:44.591Z,8.75
2018-03-18T19:49:12.657Z,6.32
2018-03-18T19:51:40.668Z,15.88
2018-03-18T19:54:08.770Z,47.00
2018-03-18T19:56:37.795Z,86.97
2018-03-18T19:59:06.322Z,29.00
2018-03-18T20:01:34.375Z,38.43
2018-03-18T20:04:02.450Z,48.42
2018-03-18T20:06:30.485Z,90.03
2018-03-18T20:08:58.636Z,39.35
2018-03-18T20:11:27.420Z,33.50
2018-03-18T20:13:55.460Z,49.08
2018-03-18T20:16:23.472Z,20.02
2018-03-18T20:18:51.613Z,5.80
2018-03-18T20:21:19.689Z,6.62
2018-03-18T20:23:47.702Z,6.18
2018-03-18T20:26:15.727Z,5.72
2018-03-18T20:28:44.156Z,5.72
2018-03-18T20:31:12.846Z,4.70
2018-03-18T20:33:41.461Z,4.50
2018-03-18T20:36:09.554Z,48.80
2018-03-18T20:38:38.197Z,42.15
2018-03-18T20:41:06.212Z,12.98
2018-03-18T20:43:34.219Z,4.95
2018-03-18T20:46:02.251Z,4.35
2018-03-18T20:48:30.268Z,7.62
2018-03-18T20:50:59.276Z,8.10
2018-03-18T20:53:27.331Z,7.22
2018-03-18T20:55:55.378Z,7.05
2018-03-18T20:58:23.433Z,5.78
2018-03-18T21:00:51.444Z,6.50
2018-03-18T21:03:19.518Z,7.72
2018-03-18T21:05:47.538Z,4.90
2018-03-18T21:08:15.634Z,5.32
2018-03-18T21:10:43.646Z,5.90
2018-03-18T21:13:12.749Z,9.75
2018-03-18T21:15:41.039Z,3.67
2018-03-18T21:18:09.057Z,4.90
2018-03-18T21:20:37.072Z,7.10
2018-03-18T21:23:05.088Z,5.15
2018-03-18T21:25:33.098Z,4.90
2018-03-18T21:28:01.308Z,4.70
2018-03-18T21:30:29.486Z,6.55
2018-03-18T21:32:57.523Z,6.05
2018-03-18T21:35:25.719Z,8.05
2018-03-18T21:37:53.970Z,6.82
2018-03-18T21:40:21.957Z,7.30
2018-03-18T21:42:49.986Z,11.02
2018-03-18T21:45:17.979Z,7.25
2018-03-18T21:47:46.089Z,6.20
2018-03-18T21:50:14.114Z,8.25
2018-03-18T21:52:42.122Z,16.42
2018-03-18T21:55:10.359Z,96.50
2018-03-18T21:57:38.504Z,91.10
2018-03-18T22:00:06.516Z,50.10
2018-03-18T22:02:34.576Z,51.15
2018-03-18T22:05:02.830Z,61.25
2018-03-18T22:07:30.858Z,71.22
2018-03-18T22:09:58.954Z,35.30
2018-03-18T22:12:27.055Z,8.20
2018-03-18T22:14:58.228Z,8.73
2018-03-18T22:17:26.190Z,6.78
2018-03-18T22:19:54.389Z,5.62
2018-03-18T22:22:22.874Z,8.17
2018-03-18T22:24:50.924Z,12.83
2018-03-18T22:27:19.293Z,5.78
2018-03-18T22:29:47.368Z,6.22
2018-03-18T22:32:15.522Z,5.18
2018-03-18T22:34:43.570Z,7.10
2018-03-18T22:37:11.573Z,4.40
2018-03-18T22:39:39.788Z,6.00
2018-03-18T22:42:07.830Z,7.85
2018-03-18T22:44:35.839Z,6.22
2018-03-18T22:47:03.921Z,5.57
2018-03-18T22:49:31.946Z,6.40
2018-03-18T22:51:59.954Z,6.65
2018-03-18T22:54:27.967Z,8.55
2018-03-18T22:56:56.095Z,8.90
2018-03-18T22:59:24.079Z,10.48
2018-03-18T23:01:52.135Z,5.15
2018-03-18T23:04:21.005Z,6.05
2018-03-18T23:06:49.061Z,10.48
2018-03-18T23:09:17.131Z,18.33
2018-03-18T23:11:45.169Z,32.33
2018-03-18T23:14:13.241Z,154.87
2018-03-18T23:16:41.270Z,175.32
2018-03-18T23:19:09.394Z,22.05
2018-03-18T23:21:37.493Z,5.90
2018-03-18T23:24:05.635Z,5.22
2018-03-18T23:26:33.706Z,6.12
2018-03-18T23:29:01.706Z,4.80
2018-03-18T23:31:29.762Z,7.60
2018-03-18T23:33:57.773Z,6.10
2018-03-18T23:36:25.828Z,6.85
2018-03-18T23:38:53.902Z,5.57
2018-03-18T23:41:21.966Z,7.87
2018-03-18T23:43:50.041Z,4.82
2018-03-18T23:46:18.040Z,8.50
2018-03-18T23:48:46.115Z,7.90
2018-03-18T23:51:14.118Z,5.22
2018-03-18T23:53:42.125Z,9.27
2018-03-18T23:56:10.153Z,6.72
2018-03-18T23:58:38.166Z,10.63
